sensor_id;sensor_type;location;lat;lon;timestamp;pressure;altitude;pressure_sealevel;temperature;humidity
75717;BME280;64333;50.138;14.332;2023-02-03T00:01:16;98847.53;;;2.21;83.38
75717;BME280;64333;50.138;14.332;2023-02-03T00:03:42;98849.25;;;2.19;83.66
75717;BME280;64333;50.138;14.332;2023-02-03T00:06:07;98834.00;;;2.16;82.93
75717;BME280;64333;50.138;14.332;2023-02-03T00:08:34;98842.44;;;2.27;83.14
75717;BME280;64333;50.138;14.332;2023-02-03T00:11:00;98842.44;;;2.30;82.44
75717;BME280;64333;50.138;14.332;2023-02-03T00:13:26;98840.72;;;2.35;82.47
75717;BME280;64333;50.138;14.332;2023-02-03T00:15:51;98840.72;;;2.38;82.03
75717;BME280;64333;50.138;14.332;2023-02-03T00:18:17;98844.97;;;2.41;82.24
75717;BME280;64333;50.138;14.332;2023-02-03T00:20:42;98842.38;;;2.42;82.00
75717;BME280;64333;50.138;14.332;2023-02-03T00:23:10;98833.03;;;2.46;82.08
75717;BME280;64333;50.138;14.332;2023-02-03T00:25:36;98842.38;;;2.53;81.56
75717;BME280;64333;50.138;14.332;2023-02-03T00:28:02;98821.97;;;2.51;81.93
75717;BME280;64333;50.138;14.332;2023-02-03T00:30:28;98822.84;;;2.47;82.08
75717;BME280;64333;50.138;14.332;2023-02-03T00:32:53;98828.78;;;2.46;82.32
75717;BME280;64333;50.138;14.332;2023-02-03T00:35:19;98818.63;;;2.42;82.38
75717;BME280;64333;50.138;14.332;2023-02-03T00:37:52;98828.78;;;2.51;82.21
75717;BME280;64333;50.138;14.332;2023-02-03T00:40:18;98821.97;;;2.48;82.58
75717;BME280;64333;50.138;14.332;2023-02-03T00:42:44;98836.41;;;2.55;82.31
75717;BME280;64333;50.138;14.332;2023-02-03T00:45:09;98835.56;;;2.55;81.94
75717;BME280;64333;50.138;14.332;2023-02-03T00:47:34;98835.56;;;2.55;82.36
75717;BME280;64333;50.138;14.332;2023-02-03T00:50:00;98836.41;;;2.57;82.36
75717;BME280;64333;50.138;14.332;2023-02-03T00:52:25;98837.22;;;2.60;82.64
75717;BME280;64333;50.138;14.332;2023-02-03T00:54:50;98838.94;;;2.55;82.93
75717;BME280;64333;50.138;14.332;2023-02-03T00:57:16;98838.97;;;2.52;83.07
75717;BME280;64333;50.138;14.332;2023-02-03T00:59:41;98837.25;;;2.57;83.44
75717;BME280;64333;50.138;14.332;2023-02-03T01:02:06;98837.25;;;2.56;83.69
75717;BME280;64333;50.138;14.332;2023-02-03T01:04:32;98831.31;;;2.51;84.00
75717;BME280;64333;50.138;14.332;2023-02-03T01:06:57;98827.97;;;2.44;84.85
75717;BME280;64333;50.138;14.332;2023-02-03T01:09:24;98830.47;;;2.47;85.85
75717;BME280;64333;50.138;14.332;2023-02-03T01:11:50;98823.72;;;2.40;86.66
75717;BME280;64333;50.138;14.332;2023-02-03T01:14:16;98811.78;;;2.42;87.33
75717;BME280;64333;50.138;14.332;2023-02-03T01:16:41;98820.31;;;2.37;89.05
75717;BME280;64333;50.138;14.332;2023-02-03T01:19:06;98823.72;;;2.34;89.34
75717;BME280;64333;50.138;14.332;2023-02-03T01:21:32;98820.34;;;2.26;90.49
75717;BME280;64333;50.138;14.332;2023-02-03T01:23:58;98830.59;;;2.17;91.09
75717;BME280;64333;50.138;14.332;2023-02-03T01:26:24;98833.97;;;2.13;92.53
75717;BME280;64333;50.138;14.332;2023-02-03T01:28:58;98820.41;;;2.05;93.11
75717;BME280;64333;50.138;14.332;2023-02-03T01:31:30;98809.41;;;1.93;93.72
75717;BME280;64333;50.138;14.332;2023-02-03T01:33:56;98806.00;;;1.91;93.70
75717;BME280;64333;50.138;14.332;2023-02-03T01:36:23;98802.63;;;1.75;94.84
75717;BME280;64333;50.138;14.332;2023-02-03T01:38:49;98785.66;;;1.65;95.66
75717;BME280;64333;50.138;14.332;2023-02-03T01:41:20;98795.84;;;1.58;96.94
75717;BME280;64333;50.138;14.332;2023-02-03T01:43:49;98788.19;;;1.46;97.26
75717;BME280;64333;50.138;14.332;2023-02-03T01:48:49;98772.09;;;1.32;98.54
75717;BME280;64333;50.138;14.332;2023-02-03T01:51:15;98765.31;;;1.29;99.36
75717;BME280;64333;50.138;14.332;2023-02-03T01:53:41;98762.78;;;1.26;99.73
75717;BME280;64333;50.138;14.332;2023-02-03T01:56:07;98757.69;;;1.23;99.88
75717;BME280;64333;50.138;14.332;2023-02-03T01:58:36;98749.19;;;1.21;100.00
75717;BME280;64333;50.138;14.332;2023-02-03T02:01:02;98736.50;;;1.18;100.00
75717;BME280;64333;50.138;14.332;2023-02-03T02:03:40;98716.16;;;1.03;100.00
75717;BME280;64333;50.138;14.332;2023-02-03T02:06:09;98717.81;;;1.07;100.00
75717;BME280;64333;50.138;14.332;2023-02-03T02:08:36;98706.81;;;1.04;100.00
75717;BME280;64333;50.138;14.332;2023-02-03T02:11:03;98705.13;;;1.04;100.00
75717;BME280;64333;50.138;14.332;2023-02-03T02:13:31;98688.16;;;1.00;100.00
75717;BME280;64333;50.138;14.332;2023-02-03T02:16:03;98696.66;;;1.01;100.00
75717;BME280;64333;50.138;14.332;2023-02-03T02:29:41;98683.06;;;1.00;100.00
75717;BME280;64333;50.138;14.332;2023-02-03T02:32:29;98684.75;;;1.01;100.00
75717;BME280;64333;50.138;14.332;2023-02-03T02:35:27;98670.38;;;1.03;100.00
75717;BME280;64333;50.138;14.332;2023-02-03T02:40:59;98657.66;;;1.12;100.00
75717;BME280;64333;50.138;14.332;2023-02-03T02:43:39;98626.28;;;1.04;100.00
75717;BME280;64333;50.138;14.332;2023-02-03T02:46:18;98628.81;;;1.13;100.00
75717;BME280;64333;50.138;14.332;2023-02-03T02:49:04;98628.81;;;1.13;100.00
75717;BME280;64333;50.138;14.332;2023-02-03T02:51:32;98615.25;;;1.14;100.00
75717;BME280;64333;50.138;14.332;2023-02-03T02:54:02;98611.84;;;1.21;100.00
75717;BME280;64333;50.138;14.332;2023-02-03T02:56:29;98611.84;;;1.24;100.00
75717;BME280;64333;50.138;14.332;2023-02-03T02:58:58;98607.59;;;1.25;100.00
75717;BME280;64333;50.138;14.332;2023-02-03T03:01:25;98599.13;;;1.29;100.00
75717;BME280;64333;50.138;14.332;2023-02-03T03:03:50;98603.34;;;1.24;100.00
75717;BME280;64333;50.138;14.332;2023-02-03T03:09:00;98605.91;;;1.21;100.00
75717;BME280;64333;50.138;14.332;2023-02-03T03:11:30;98606.75;;;1.21;100.00
75717;BME280;64333;50.138;14.332;2023-02-03T03:13:58;98594.03;;;1.15;100.00
75717;BME280;64333;50.138;14.332;2023-02-03T03:16:26;98599.97;;;1.20;100.00
75717;BME280;64333;50.138;14.332;2023-02-03T03:19:01;98605.06;;;1.22;100.00
75717;BME280;64333;50.138;14.332;2023-02-03T03:21:35;98586.41;;;1.15;100.00
75717;BME280;64333;50.138;14.332;2023-02-03T03:24:06;98591.50;;;1.21;100.00
75717;BME280;64333;50.138;14.332;2023-02-03T03:26:42;98598.25;;;1.22;100.00
75717;BME280;64333;50.138;14.332;2023-02-03T03:31:42;98580.47;;;1.27;100.00
75717;BME280;64333;50.138;14.332;2023-02-03T03:34:10;98581.31;;;1.30;100.00
75717;BME280;64333;50.138;14.332;2023-02-03T03:42:22;98569.41;;;1.38;100.00
75717;BME280;64333;50.138;14.332;2023-02-03T03:44:57;98549.88;;;1.42;100.00
75717;BME280;64333;50.138;14.332;2023-02-03T03:47:35;98527.03;;;1.31;100.00
75717;BME280;64333;50.138;14.332;2023-02-03T03:50:05;98549.88;;;1.48;100.00
75717;BME280;64333;50.138;14.332;2023-02-03T03:52:34;98542.22;;;1.46;100.00
75717;BME280;64333;50.138;14.332;2023-02-03T03:55:02;98532.00;;;1.58;100.00
75717;BME280;64333;50.138;14.332;2023-02-03T03:57:33;98537.03;;;1.70;100.00
75717;BME280;64333;50.138;14.332;2023-02-03T04:00:02;98535.31;;;1.74;100.00
75717;BME280;64333;50.138;14.332;2023-02-03T04:02:28;98539.53;;;1.81;100.00
75717;BME280;64333;50.138;14.332;2023-02-03T04:04:57;98544.59;;;1.87;100.00
75717;BME280;64333;50.138;14.332;2023-02-03T04:07:36;98538.59;;;1.89;100.00
75717;BME280;64333;50.138;14.332;2023-02-03T04:10:04;98526.72;;;1.90;100.00
75717;BME280;64333;50.138;14.332;2023-02-03T04:12:31;98525.88;;;1.91;100.00
75717;BME280;64333;50.138;14.332;2023-02-03T04:14:56;98519.94;;;1.90;100.00
75717;BME280;64333;50.138;14.332;2023-02-03T04:17:22;98533.50;;;1.92;100.00
75717;BME280;64333;50.138;14.332;2023-02-03T04:19:48;98517.38;;;1.93;100.00
75717;BME280;64333;50.138;14.332;2023-02-03T04:22:13;98513.97;;;1.96;100.00
75717;BME280;64333;50.138;14.332;2023-02-03T04:24:38;98507.97;;;2.01;100.00
75717;BME280;64333;50.138;14.332;2023-02-03T04:27:04;98507.16;;;2.01;100.00
75717;BME280;64333;50.138;14.332;2023-02-03T04:29:29;98505.44;;;2.03;100.00
75717;BME280;64333;50.138;14.332;2023-02-03T04:31:54;98500.31;;;2.04;100.00
75717;BME280;64333;50.138;14.332;2023-02-03T04:34:20;98497.75;;;2.07;100.00
75717;BME280;64333;50.138;14.332;2023-02-03T04:36:45;98486.69;;;2.08;100.00
75717;BME280;64333;50.138;14.332;2023-02-03T04:39:10;98489.19;;;2.14;100.00
75717;BME280;64333;50.138;14.332;2023-02-03T04:41:36;98472.19;;;2.19;100.00
75717;BME280;64333;50.138;14.332;2023-02-03T04:44:01;98481.50;;;2.23;100.00
75717;BME280;64333;50.138;14.332;2023-02-03T04:46:26;98469.59;;;2.25;100.00
75717;BME280;64333;50.138;14.332;2023-02-03T04:48:52;98465.31;;;2.30;100.00
75717;BME280;64333;50.138;14.332;2023-02-03T04:51:17;98456.75;;;2.34;100.00
75717;BME280;64333;50.138;14.332;2023-02-03T04:53:42;98455.03;;;2.38;100.00
75717;BME280;64333;50.138;14.332;2023-02-03T04:56:08;98449.94;;;2.38;100.00
75717;BME280;64333;50.138;14.332;2023-02-03T04:58:34;98443.06;;;2.46;100.00
75717;BME280;64333;50.138;14.332;2023-02-03T05:01:05;98421.84;;;2.44;100.00
75717;BME280;64333;50.138;14.332;2023-02-03T05:03:32;98403.13;;;2.48;100.00
75717;BME280;64333;50.138;14.332;2023-02-03T05:05:57;98405.63;;;2.52;100.00
75717;BME280;64333;50.138;14.332;2023-02-03T05:08:22;98409.06;;;2.48;100.00
75717;BME280;64333;50.138;14.332;2023-02-03T05:10:48;98425.03;;;2.64;100.00
75717;BME280;64333;50.138;14.332;2023-02-03T05:13:13;98427.53;;;2.70;100.00
75717;BME280;64333;50.138;14.332;2023-02-03T05:15:39;98417.34;;;2.68;99.95
75717;BME280;64333;50.138;14.332;2023-02-03T05:18:04;98435.06;;;2.80;99.30
75717;BME280;64333;50.138;14.332;2023-02-03T05:20:29;98440.13;;;2.83;99.78
75717;BME280;64333;50.138;14.332;2023-02-03T05:22:55;98432.44;;;2.86;99.87
75717;BME280;64333;50.138;14.332;2023-02-03T05:25:20;98437.47;;;2.92;98.78
75717;BME280;64333;50.138;14.332;2023-02-03T05:27:45;98451.91;;;2.96;99.14
75717;BME280;64333;50.138;14.332;2023-02-03T05:30:11;98438.28;;;2.94;98.70
75717;BME280;64333;50.138;14.332;2023-02-03T05:32:36;98436.50;;;3.02;98.79
75717;BME280;64333;50.138;14.332;2023-02-03T05:35:02;98438.97;;;3.10;98.16
75717;BME280;64333;50.138;14.332;2023-02-03T05:37:27;98437.19;;;3.16;98.09
75717;BME280;64333;50.138;14.332;2023-02-03T05:39:52;98432.03;;;3.22;97.56
75717;BME280;64333;50.138;14.332;2023-02-03T05:42:17;98426.88;;;3.25;97.39
75717;BME280;64333;50.138;14.332;2023-02-03T05:44:43;98404.13;;;3.09;97.90
75717;BME280;64333;50.138;14.332;2023-02-03T05:47:08;98418.41;;;3.20;98.26
75717;BME280;64333;50.138;14.332;2023-02-03T05:49:34;98426.81;;;3.28;98.91
75717;BME280;64333;50.138;14.332;2023-02-03T05:51:59;98423.38;;;3.32;98.47
75717;BME280;64333;50.138;14.332;2023-02-03T05:54:24;98418.25;;;3.34;98.40
75717;BME280;64333;50.138;14.332;2023-02-03T05:56:50;98401.28;;;3.31;99.55
75717;BME280;64333;50.138;14.332;2023-02-03T05:59:15;98397.75;;;3.38;98.78
75717;BME280;64333;50.138;14.332;2023-02-03T06:01:41;98387.56;;;3.38;97.89
75717;BME280;64333;50.138;14.332;2023-02-03T06:04:06;98384.00;;;3.48;98.83
75717;BME280;64333;50.138;14.332;2023-02-03T06:06:32;98383.19;;;3.45;98.72
75717;BME280;64333;50.138;14.332;2023-02-03T06:09:07;98369.47;;;3.52;98.71
75717;BME280;64333;50.138;14.332;2023-02-03T06:11:33;98373.69;;;3.54;98.85
75717;BME280;64333;50.138;14.332;2023-02-03T06:14:00;98369.44;;;3.55;98.45
75717;BME280;64333;50.138;14.332;2023-02-03T06:16:26;98363.53;;;3.51;98.38
75717;BME280;64333;50.138;14.332;2023-02-03T06:18:53;98380.47;;;3.57;98.76
75717;BME280;64333;50.138;14.332;2023-02-03T06:21:20;98364.34;;;3.53;97.89
75717;BME280;64333;50.138;14.332;2023-02-03T06:23:46;98417.78;;;3.67;98.54
75717;BME280;64333;50.138;14.332;2023-02-03T06:26:11;98375.19;;;3.67;98.21
75717;BME280;64333;50.138;14.332;2023-02-03T06:28:37;98382.75;;;3.75;97.77
75717;BME280;64333;50.138;14.332;2023-02-03T06:31:03;98377.59;;;3.78;98.17
75717;BME280;64333;50.138;14.332;2023-02-03T06:33:29;98372.44;;;3.81;97.72
75717;BME280;64333;50.138;14.332;2023-02-03T06:35:54;98376.66;;;3.83;98.11
75717;BME280;64333;50.138;14.332;2023-02-03T06:38:19;98361.28;;;3.86;97.62
75717;BME280;64333;50.138;14.332;2023-02-03T06:40:46;98361.19;;;3.92;97.67
75717;BME280;64333;50.138;14.332;2023-02-03T06:43:12;98367.16;;;3.93;97.85
75717;BME280;64333;50.138;14.332;2023-02-03T06:45:37;98363.63;;;3.98;97.77
75717;BME280;64333;50.138;14.332;2023-02-03T06:48:02;98371.22;;;4.01;97.49
75717;BME280;64333;50.138;14.332;2023-02-03T06:50:28;98332.00;;;4.05;96.52
75717;BME280;64333;50.138;14.332;2023-02-03T06:52:53;98354.03;;;4.12;96.56
75717;BME280;64333;50.138;14.332;2023-02-03T06:55:18;98328.66;;;4.00;96.51
75717;BME280;64333;50.138;14.332;2023-02-03T06:57:45;98367.56;;;4.17;96.60
75717;BME280;64333;50.138;14.332;2023-02-03T07:00:12;98376.84;;;4.23;96.68
75717;BME280;64333;50.138;14.332;2023-02-03T07:02:38;98349.66;;;4.19;96.33
75717;BME280;64333;50.138;14.332;2023-02-03T07:05:04;98351.97;;;4.31;96.03
75717;BME280;64333;50.138;14.332;2023-02-03T07:07:30;98338.28;;;4.33;95.27
75717;BME280;64333;50.138;14.332;2023-02-03T07:09:56;98328.06;;;4.33;95.14
75717;BME280;64333;50.138;14.332;2023-02-03T07:12:21;98344.09;;;4.41;95.00
75717;BME280;64333;50.138;14.332;2023-02-03T07:14:47;98335.50;;;4.45;94.59
75717;BME280;64333;50.138;14.332;2023-02-03T07:17:12;98338.00;;;4.48;94.36
75717;BME280;64333;50.138;14.332;2023-02-03T07:19:37;98326.03;;;4.50;94.26
75717;BME280;64333;50.138;14.332;2023-02-03T07:22:03;98319.19;;;4.52;94.52
75717;BME280;64333;50.138;14.332;2023-02-03T07:24:28;98334.47;;;4.55;94.03
75717;BME280;64333;50.138;14.332;2023-02-03T07:26:53;98336.03;;;4.62;93.52
75717;BME280;64333;50.138;14.332;2023-02-03T07:29:19;98335.97;;;4.65;94.33
75717;BME280;64333;50.138;14.332;2023-02-03T07:31:44;98326.75;;;4.58;94.81
75717;BME280;64333;50.138;14.332;2023-02-03T07:34:09;98332.59;;;4.63;94.97
75717;BME280;64333;50.138;14.332;2023-02-03T07:36:35;98330.16;;;4.59;96.89
75717;BME280;64333;50.138;14.332;2023-02-03T07:39:00;98334.28;;;4.64;96.94
75717;BME280;64333;50.138;14.332;2023-02-03T07:41:26;98330.06;;;4.63;96.23
75717;BME280;64333;50.138;14.332;2023-02-03T07:43:51;98331.75;;;4.63;96.71
75717;BME280;64333;50.138;14.332;2023-02-03T07:46:16;98325.75;;;4.65;95.37
75717;BME280;64333;50.138;14.332;2023-02-03T07:48:42;98328.22;;;4.68;95.52
75717;BME280;64333;50.138;14.332;2023-02-03T07:51:07;98334.19;;;4.70;95.14
75717;BME280;64333;50.138;14.332;2023-02-03T07:53:33;98334.09;;;4.73;95.19
75717;BME280;64333;50.138;14.332;2023-02-03T07:55:59;98319.66;;;4.71;95.57
75717;BME280;64333;50.138;14.332;2023-02-03T07:58:25;98325.53;;;4.76;96.04
75717;BME280;64333;50.138;14.332;2023-02-03T08:00:50;98311.94;;;4.72;95.25
75717;BME280;64333;50.138;14.332;2023-02-03T08:03:16;98310.03;;;4.83;95.05
75717;BME280;64333;50.138;14.332;2023-02-03T08:05:41;98301.47;;;4.84;94.38
75717;BME280;64333;50.138;14.332;2023-02-03T08:08:06;98293.72;;;4.87;95.24
75717;BME280;64333;50.138;14.332;2023-02-03T08:10:32;98279.13;;;4.92;94.43
75717;BME280;64333;50.138;14.332;2023-02-03T08:12:57;98267.13;;;4.94;94.43
75717;BME280;64333;50.138;14.332;2023-02-03T08:15:23;98267.13;;;4.94;93.58
75717;BME280;64333;50.138;14.332;2023-02-03T08:17:48;98259.31;;;5.00;93.46
75717;BME280;64333;50.138;14.332;2023-02-03T08:20:14;98263.56;;;5.01;93.73
75717;BME280;64333;50.138;14.332;2023-02-03T08:22:40;98253.25;;;5.04;93.41
75717;BME280;64333;50.138;14.332;2023-02-03T08:25:06;98265.78;;;5.16;92.83
75717;BME280;64333;50.138;14.332;2023-02-03T08:27:32;98258.03;;;5.19;92.86
75717;BME280;64333;50.138;14.332;2023-02-03T08:29:58;98258.81;;;5.21;92.52
75717;BME280;64333;50.138;14.332;2023-02-03T08:32:23;98268.97;;;5.25;92.16
75717;BME280;64333;50.138;14.332;2023-02-03T08:34:50;98267.31;;;5.23;91.53
75717;BME280;64333;50.138;14.332;2023-02-03T08:37:17;98261.09;;;5.33;91.50
75717;BME280;64333;50.138;14.332;2023-02-03T08:39:43;98245.75;;;5.33;92.22
75717;BME280;64333;50.138;14.332;2023-02-03T08:42:09;98251.75;;;5.32;92.28
75717;BME280;64333;50.138;14.332;2023-02-03T08:44:34;98245.81;;;5.30;92.47
75717;BME280;64333;50.138;14.332;2023-02-03T08:47:00;98252.63;;;5.31;93.86
75717;BME280;64333;50.138;14.332;2023-02-03T08:49:28;98240.63;;;5.33;92.72
75717;BME280;64333;50.138;14.332;2023-02-03T08:51:54;98247.41;;;5.34;93.29
75717;BME280;64333;50.138;14.332;2023-02-03T08:54:19;98237.50;;;5.22;93.38
75717;BME280;64333;50.138;14.332;2023-02-03T08:56:46;98251.81;;;5.29;94.66
75717;BME280;64333;50.138;14.332;2023-02-03T08:59:11;98227.31;;;5.19;94.78
75717;BME280;64333;50.138;14.332;2023-02-03T09:01:37;98240.84;;;5.24;95.25
75717;BME280;64333;50.138;14.332;2023-02-03T09:04:05;98234.94;;;5.22;96.33
75717;BME280;64333;50.138;14.332;2023-02-03T09:06:33;98231.53;;;5.20;94.81
75717;BME280;64333;50.138;14.332;2023-02-03T09:08:58;98230.66;;;5.21;95.86
75717;BME280;64333;50.138;14.332;2023-02-03T09:11:24;98224.69;;;5.22;96.47
75717;BME280;64333;50.138;14.332;2023-02-03T09:13:49;98217.69;;;5.28;95.42
75717;BME280;64333;50.138;14.332;2023-02-03T09:16:16;98214.25;;;5.29;95.13
75717;BME280;64333;50.138;14.332;2023-02-03T09:18:42;98198.97;;;5.26;94.08
75717;BME280;64333;50.138;14.332;2023-02-03T09:21:09;98196.31;;;5.29;94.10
75717;BME280;64333;50.138;14.332;2023-02-03T09:23:35;98196.16;;;5.35;93.56
75717;BME280;64333;50.138;14.332;2023-02-03T09:26:05;98197.03;;;5.36;93.37
75717;BME280;64333;50.138;14.332;2023-02-03T09:28:31;98200.28;;;5.41;93.90
75717;BME280;64333;50.138;14.332;2023-02-03T09:31:05;98188.34;;;5.41;92.78
75717;BME280;64333;50.138;14.332;2023-02-03T09:33:31;98202.81;;;5.42;93.04
75717;BME280;64333;50.138;14.332;2023-02-03T09:35:57;98203.69;;;5.43;92.75
75717;BME280;64333;50.138;14.332;2023-02-03T09:38:23;98196.03;;;5.41;93.43
75717;BME280;64333;50.138;14.332;2023-02-03T09:40:52;98195.13;;;5.42;94.25
75717;BME280;64333;50.138;14.332;2023-02-03T09:44:13;98190.09;;;5.39;93.94
75717;BME280;64333;50.138;14.332;2023-02-03T09:46:40;98169.63;;;5.39;93.40
75717;BME280;64333;50.138;14.332;2023-02-03T09:51:58;98168.66;;;5.43;94.04
75717;BME280;64333;50.138;14.332;2023-02-03T09:57:05;98148.22;;;5.42;94.85
75717;BME280;64333;50.138;14.332;2023-02-03T09:59:35;98123.47;;;5.41;94.83
75717;BME280;64333;50.138;14.332;2023-02-03T10:10:24;98099.78;;;5.65;93.04
75717;BME280;64333;50.138;14.332;2023-02-03T10:13:08;98087.50;;;5.76;91.67
75717;BME280;64333;50.138;14.332;2023-02-03T10:18:50;98098.16;;;5.93;90.22
75717;BME280;64333;50.138;14.332;2023-02-03T10:23:44;98069.59;;;6.05;88.28
75717;BME280;64333;50.138;14.332;2023-02-03T10:26:20;98070.28;;;6.11;88.33
75717;BME280;64333;50.138;14.332;2023-02-03T10:28:53;98060.50;;;6.22;86.95
75717;BME280;64333;50.138;14.332;2023-02-03T10:31:25;98039.78;;;6.30;86.51
75717;BME280;64333;50.138;14.332;2023-02-03T10:39:34;98025.31;;;6.55;84.82
75717;BME280;64333;50.138;14.332;2023-02-03T10:42:04;98018.38;;;6.57;83.08
75717;BME280;64333;50.138;14.332;2023-02-03T10:44:39;98026.78;;;6.62;83.05
75717;BME280;64333;50.138;14.332;2023-02-03T10:49:39;98014.06;;;6.57;82.50
75717;BME280;64333;50.138;14.332;2023-02-03T10:52:24;98005.44;;;6.60;81.99
75717;BME280;64333;50.138;14.332;2023-02-03T10:54:49;98004.50;;;6.62;82.56
75717;BME280;64333;50.138;14.332;2023-02-03T10:57:15;98004.47;;;6.64;81.37
75717;BME280;64333;50.138;14.332;2023-02-03T10:59:42;97983.78;;;6.68;81.31
75717;BME280;64333;50.138;14.332;2023-02-03T11:02:22;97975.84;;;6.76;81.10
75717;BME280;64333;50.138;14.332;2023-02-03T11:05:08;97964.56;;;6.80;80.29
75717;BME280;64333;50.138;14.332;2023-02-03T11:07:34;97957.81;;;6.77;80.25
75717;BME280;64333;50.138;14.332;2023-02-03T11:09:59;97963.63;;;6.82;79.91
75717;BME280;64333;50.138;14.332;2023-02-03T11:12:24;97942.06;;;6.88;79.33
75717;BME280;64333;50.138;14.332;2023-02-03T11:14:51;97958.25;;;6.90;78.93
75717;BME280;64333;50.138;14.332;2023-02-03T11:17:20;97972.78;;;6.89;79.46
75717;BME280;64333;50.138;14.332;2023-02-03T11:19:52;97959.91;;;6.91;79.74
75717;BME280;64333;50.138;14.332;2023-02-03T11:22:51;97946.38;;;6.86;79.08
75717;BME280;64333;50.138;14.332;2023-02-03T11:25:36;97943.00;;;6.85;79.94
75717;BME280;64333;50.138;14.332;2023-02-03T11:28:04;97941.25;;;6.86;79.88
75717;BME280;64333;50.138;14.332;2023-02-03T11:30:31;97925.13;;;6.82;80.03
75717;BME280;64333;50.138;14.332;2023-02-03T11:33:00;97944.84;;;6.82;80.27
75717;BME280;64333;50.138;14.332;2023-02-03T11:35:28;97953.19;;;6.87;79.80
75717;BME280;64333;50.138;14.332;2023-02-03T11:37:59;97935.34;;;6.84;79.77
75717;BME280;64333;50.138;14.332;2023-02-03T11:47:56;97919.91;;;6.85;79.60
75717;BME280;64333;50.138;14.332;2023-02-03T11:50:36;97917.16;;;6.90;79.32
75717;BME280;64333;50.138;14.332;2023-02-03T12:01:55;97916.84;;;6.99;79.36
75717;BME280;64333;50.138;14.332;2023-02-03T12:18:04;97903.44;;;7.14;77.18
75717;BME280;64333;50.138;14.332;2023-02-03T12:26:22;97884.97;;;7.27;76.14
75717;BME280;64333;50.138;14.332;2023-02-03T12:29:15;97881.50;;;7.28;76.84
75717;BME280;64333;50.138;14.332;2023-02-03T12:31:47;97870.13;;;7.12;78.14
75717;BME280;64333;50.138;14.332;2023-02-03T12:34:27;97879.47;;;7.15;78.07
75717;BME280;64333;50.138;14.332;2023-02-03T12:37:02;97873.66;;;7.10;78.78
75717;BME280;64333;50.138;14.332;2023-02-03T12:42:00;97868.78;;;7.02;79.87
75717;BME280;64333;50.138;14.332;2023-02-03T12:44:31;97869.72;;;7.00;79.68
75717;BME280;64333;50.138;14.332;2023-02-03T12:47:13;97852.56;;;7.02;80.13
75717;BME280;64333;50.138;14.332;2023-02-03T12:49:50;97824.84;;;6.87;80.06
75717;BME280;64333;50.138;14.332;2023-02-03T12:52:24;97852.44;;;7.05;79.67
75717;BME280;64333;50.138;14.332;2023-02-03T12:55:05;97841.81;;;7.14;79.19
75717;BME280;64333;50.138;14.332;2023-02-03T12:57:36;97848.34;;;7.22;79.93
75717;BME280;64333;50.138;14.332;2023-02-03T13:00:34;97841.03;;;7.12;79.47
75717;BME280;64333;50.138;14.332;2023-02-03T13:03:12;97821.16;;;7.17;79.60
75717;BME280;64333;50.138;14.332;2023-02-03T13:08:28;97803.63;;;7.28;78.58
75717;BME280;64333;50.138;14.332;2023-02-03T13:13:55;97791.41;;;7.33;78.54
75717;BME280;64333;50.138;14.332;2023-02-03T13:16:27;97791.09;;;7.42;77.79
75717;BME280;64333;50.138;14.332;2023-02-03T13:19:00;97782.41;;;7.44;77.57
75717;BME280;64333;50.138;14.332;2023-02-03T13:21:26;97761.91;;;7.43;78.04
75717;BME280;64333;50.138;14.332;2023-02-03T13:23:52;97760.72;;;7.30;78.05
75717;BME280;64333;50.138;14.332;2023-02-03T13:29:12;97769.50;;;7.46;77.84
75717;BME280;64333;50.138;14.332;2023-02-03T13:31:54;97755.13;;;7.42;78.75
75717;BME280;64333;50.138;14.332;2023-02-03T13:37:52;97754.16;;;7.44;78.50
75717;BME280;64333;50.138;14.332;2023-02-03T13:43:17;97777.09;;;7.49;78.92
75717;BME280;64333;50.138;14.332;2023-02-03T13:45:47;97789.22;;;7.45;77.72
75717;BME280;64333;50.138;14.332;2023-02-03T13:48:24;97779.94;;;7.41;78.14
75717;BME280;64333;50.138;14.332;2023-02-03T13:51:02;97768.38;;;7.31;78.28
75717;BME280;64333;50.138;14.332;2023-02-03T13:53:36;97779.25;;;7.38;77.84
75717;BME280;64333;50.138;14.332;2023-02-03T13:56:06;97760.34;;;7.39;78.03
75717;BME280;64333;50.138;14.332;2023-02-03T13:58:35;97775.44;;;7.48;78.36
75717;BME280;64333;50.138;14.332;2023-02-03T14:03:56;97744.28;;;7.34;78.11
75717;BME280;64333;50.138;14.332;2023-02-03T14:09:19;97759.63;;;7.35;78.50
75717;BME280;64333;50.138;14.332;2023-02-03T14:11:47;97769.19;;;7.32;78.68
75717;BME280;64333;50.138;14.332;2023-02-03T14:16:43;97780.25;;;7.34;80.69
75717;BME280;64333;50.138;14.332;2023-02-03T14:22:00;97789.50;;;7.16;82.22
75717;BME280;64333;50.138;14.332;2023-02-03T14:24:31;97783.72;;;7.11;83.06
75717;BME280;64333;50.138;14.332;2023-02-03T14:26:58;97789.13;;;7.04;85.29
75717;BME280;64333;50.138;14.332;2023-02-03T14:29:30;97781.13;;;6.90;84.03
75717;BME280;64333;50.138;14.332;2023-02-03T14:31:59;97794.13;;;6.85;86.31
75717;BME280;64333;50.138;14.332;2023-02-03T14:34:31;97775.59;;;6.77;86.83
75717;BME280;64333;50.138;14.332;2023-02-03T14:37:09;97805.50;;;6.78;87.95
75717;BME280;64333;50.138;14.332;2023-02-03T14:45:09;97834.56;;;6.56;90.35
75717;BME280;64333;50.138;14.332;2023-02-03T14:47:52;97849.72;;;6.37;90.93
75717;BME280;64333;50.138;14.332;2023-02-03T14:56:37;97857.16;;;6.20;90.50
75717;BME280;64333;50.138;14.332;2023-02-03T14:59:39;97843.41;;;6.23;88.86
75717;BME280;64333;50.138;14.332;2023-02-03T15:04:34;97836.91;;;6.13;88.02
75717;BME280;64333;50.138;14.332;2023-02-03T15:06:59;97854.03;;;6.12;89.02
75717;BME280;64333;50.138;14.332;2023-02-03T15:09:35;97854.94;;;6.11;88.63
75717;BME280;64333;50.138;14.332;2023-02-03T15:12:16;97859.25;;;6.09;89.21
75717;BME280;64333;50.138;14.332;2023-02-03T15:14:41;97839.97;;;5.98;88.76
75717;BME280;64333;50.138;14.332;2023-02-03T15:17:33;97854.19;;;6.08;89.05
75717;BME280;64333;50.138;14.332;2023-02-03T15:19:58;97856.88;;;6.03;88.99